createdAt,value
2017-10-29T00:02:28.709Z,15.43
2017-10-29T00:05:30.612Z,16.97
2017-10-29T00:08:33.394Z,17.00
2017-10-29T00:11:35.381Z,10.00
2017-10-29T00:14:37.818Z,14.33
2017-10-29T00:17:39.768Z,17.00
2017-10-29T00:20:42.881Z,10.10
2017-10-29T00:23:45.666Z,12.93
2017-10-29T00:26:49.473Z,15.33
2017-10-29T00:29:51.454Z,18.03
2017-10-29T00:32:53.509Z,21.13
2017-10-29T00:35:55.422Z,11.20
2017-10-29T00:38:57.483Z,15.90
2017-10-29T00:41:59.486Z,11.77
2017-10-29T00:45:01.437Z,17.07
2017-10-29T00:48:03.356Z,11.20
2017-10-29T00:51:05.643Z,15.20
2017-10-29T00:54:07.713Z,21.80
2017-10-29T00:57:09.688Z,11.83
2017-10-29T01:00:11.613Z,10.17
2017-10-29T01:03:14.011Z,11.33
2017-10-29T01:06:15.912Z,10.37
2017-10-29T01:09:18.965Z,16.93
2017-10-29T01:12:20.962Z,15.30
2017-10-29T01:15:22.962Z,15.47
2017-10-29T01:18:24.861Z,21.87
2017-10-29T01:21:27.584Z,15.00
2017-10-29T01:24:29.517Z,12.27
2017-10-29T01:27:31.554Z,4.93
2017-10-29T01:30:33.465Z,8.77
2017-10-29T01:33:35.409Z,12.37
2017-10-29T01:36:37.323Z,10.73
2017-10-29T01:39:39.633Z,8.10
2017-10-29T01:42:41.659Z,12.27
2017-10-29T01:45:43.596Z,12.90
2017-10-29T01:48:45.650Z,11.00
2017-10-29T01:51:47.693Z,11.87
2017-10-29T01:54:50.350Z,13.03
2017-10-29T01:57:52.597Z,13.63
2017-10-29T02:00:54.493Z,20.57
2017-10-29T02:03:56.936Z,16.63
2017-10-29T02:06:58.895Z,12.43
2017-10-29T02:10:00.827Z,20.87
2017-10-29T02:13:03.513Z,15.97
2017-10-29T02:16:06.225Z,18.37
2017-10-29T02:19:08.908Z,25.40
2017-10-29T02:22:12.707Z,21.07
2017-10-29T02:25:14.711Z,16.37
2017-10-29T02:28:16.674Z,26.77
2017-10-29T02:31:18.569Z,24.70
2017-10-29T02:34:20.494Z,22.33
2017-10-29T02:37:22.409Z,13.63
2017-10-29T02:40:24.367Z,15.83
2017-10-29T02:43:26.257Z,14.70
2017-10-29T02:46:28.294Z,14.47
2017-10-29T02:49:30.270Z,15.50
2017-10-29T02:52:32.766Z,17.13
2017-10-29T02:55:34.725Z,14.73
2017-10-29T02:58:36.846Z,17.37
2017-10-29T03:01:38.794Z,16.93
2017-10-29T03:04:40.778Z,23.87
2017-10-29T03:07:42.671Z,16.83
2017-10-29T03:10:44.674Z,24.50
2017-10-29T03:13:46.654Z,24.47
2017-10-29T03:16:48.635Z,19.60
2017-10-29T03:19:50.619Z,19.73
2017-10-29T03:22:52.906Z,22.63
2017-10-29T03:25:54.889Z,18.07
2017-10-29T03:28:56.850Z,27.03
2017-10-29T03:31:58.738Z,31.60
2017-10-29T03:35:00.742Z,19.77
2017-10-29T03:38:03.535Z,22.83
2017-10-29T03:41:06.351Z,21.60
2017-10-29T03:44:09.045Z,20.63
2017-10-29T03:47:11.331Z,21.60
2017-10-29T03:50:13.225Z,20.67
2017-10-29T03:53:15.955Z,30.90
2017-10-29T03:56:17.889Z,23.53
2017-10-29T03:59:20.262Z,30.47
2017-10-29T04:02:22.247Z,29.90
2017-10-29T04:05:24.546Z,30.80
2017-10-29T04:08:26.549Z,35.17
2017-10-29T04:11:29.265Z,38.73
2017-10-29T04:14:31.963Z,33.40
2017-10-29T04:17:35.030Z,46.53
2017-10-29T04:20:37.029Z,37.83
2017-10-29T04:23:39.009Z,53.73
2017-10-29T04:26:40.923Z,45.17
2017-10-29T04:29:44.016Z,53.30
2017-10-29T04:32:46.045Z,49.80
2017-10-29T04:35:47.958Z,38.10
2017-10-29T04:38:49.974Z,36.93
2017-10-29T04:41:52.752Z,25.30
2017-10-29T04:44:54.657Z,20.20
2017-10-29T04:47:56.927Z,22.83
2017-10-29T04:50:58.906Z,24.77
2017-10-29T04:54:00.914Z,24.47
2017-10-29T04:57:03.708Z,25.37
2017-10-29T05:00:05.874Z,20.67
2017-10-29T05:03:07.796Z,26.23
2017-10-29T05:06:10.496Z,27.67
2017-10-29T05:09:13.258Z,19.03
2017-10-29T05:12:16.052Z,34.20
2017-10-29T05:15:18.066Z,34.33
2017-10-29T05:18:20.022Z,35.60
2017-10-29T05:21:22.050Z,29.87
2017-10-29T05:24:24.761Z,41.67
2017-10-29T05:27:26.653Z,33.90
2017-10-29T05:30:28.693Z,32.77
2017-10-29T05:33:30.600Z,34.23
2017-10-29T05:36:33.407Z,37.43
2017-10-29T05:39:35.306Z,39.87
2017-10-29T05:42:37.349Z,31.57
2017-10-29T05:45:40.161Z,29.90
2017-10-29T05:48:42.890Z,30.13
2017-10-29T05:51:44.806Z,30.70
2017-10-29T05:54:47.124Z,29.80
2017-10-29T05:57:49.043Z,30.60
2017-10-29T06:00:51.390Z,22.40
2017-10-29T06:03:54.230Z,27.33
2017-10-29T06:06:56.146Z,26.63
2017-10-29T06:09:58.061Z,39.27
2017-10-29T06:13:00.308Z,37.43
2017-10-29T06:16:02.299Z,35.23
2017-10-29T06:19:04.595Z,30.13
2017-10-29T06:22:06.609Z,28.53
2017-10-29T06:25:08.904Z,47.93
2017-10-29T06:28:11.741Z,29.17
2017-10-29T06:31:13.771Z,36.77
2017-10-29T06:34:15.710Z,36.43
2017-10-29T06:37:18.059Z,34.30
2017-10-29T06:40:19.951Z,27.97
2017-10-29T06:43:22.735Z,26.83
2017-10-29T06:46:24.718Z,36.27
2017-10-29T06:49:26.698Z,38.47
2017-10-29T06:52:29.812Z,30.73
2017-10-29T06:55:32.178Z,38.00
2017-10-29T06:58:34.765Z,37.97
2017-10-29T07:01:36.678Z,41.57
2017-10-29T07:04:38.875Z,39.53
2017-10-29T07:07:41.167Z,42.97
2017-10-29T07:10:44.030Z,38.97
2017-10-29T07:13:45.947Z,43.23
2017-10-29T07:16:48.625Z,40.27
2017-10-29T07:19:50.565Z,44.97
2017-10-29T07:22:52.489Z,42.90
2017-10-29T07:25:54.434Z,34.77
2017-10-29T07:28:56.375Z,39.23
2017-10-29T07:31:59.858Z,38.90
2017-10-29T07:35:01.755Z,32.07
2017-10-29T07:38:03.770Z,36.13
2017-10-29T07:41:06.465Z,38.13
2017-10-29T07:44:09.260Z,45.03
2017-10-29T07:47:11.162Z,42.53
2017-10-29T07:50:13.867Z,56.77
2017-10-29T07:53:15.790Z,45.13
2017-10-29T07:56:17.746Z,38.13
2017-10-29T07:59:19.635Z,35.93
2017-10-29T08:02:21.561Z,37.80
2017-10-29T08:05:23.484Z,35.27
2017-10-29T08:08:25.415Z,30.95
2017-10-29T08:11:27.345Z,37.45
2017-10-29T08:14:29.397Z,31.62
2017-10-29T08:17:31.301Z,32.97
2017-10-29T08:20:33.989Z,31.33
2017-10-29T08:23:36.681Z,28.33
2017-10-29T08:26:39.169Z,30.70
2017-10-29T08:29:41.126Z,36.67
2017-10-29T08:32:43.065Z,26.98
2017-10-29T08:35:45.819Z,23.38
2017-10-29T08:38:47.933Z,21.42
2017-10-29T08:41:50.732Z,24.27
2017-10-29T08:44:53.522Z,28.00
2017-10-29T08:47:55.486Z,17.40
2017-10-29T08:50:57.450Z,24.45
2017-10-29T08:54:00.407Z,20.73
2017-10-29T08:57:03.093Z,31.98
2017-10-29T09:00:05.078Z,23.55
2017-10-29T09:03:07.814Z,18.75
2017-10-29T09:06:10.667Z,25.55
2017-10-29T09:09:12.593Z,26.75
2017-10-29T09:12:14.550Z,26.20
2017-10-29T09:15:16.530Z,32.72
2017-10-29T09:18:18.526Z,21.23
2017-10-29T09:21:21.298Z,23.17
2017-10-29T09:24:23.306Z,23.10
2017-10-29T09:27:26.136Z,27.48
2017-10-29T09:30:28.062Z,27.33
2017-10-29T09:33:29.985Z,28.27
2017-10-29T09:36:32.784Z,24.98
2017-10-29T09:39:35.503Z,24.08
2017-10-29T09:42:37.426Z,19.27
2017-10-29T09:45:39.414Z,13.60
2017-10-29T09:48:41.322Z,17.20
2017-10-29T09:51:45.238Z,16.27
2017-10-29T09:54:47.212Z,21.42
2017-10-29T09:57:49.523Z,19.17
2017-10-29T10:00:51.477Z,14.63
2017-10-29T10:03:53.776Z,22.77
2017-10-29T10:06:55.815Z,23.70
2017-10-29T10:09:57.810Z,14.70
2017-10-29T10:12:59.711Z,18.05
2017-10-29T10:16:02.249Z,17.20
2017-10-29T10:19:05.033Z,14.98
2017-10-29T10:22:07.106Z,25.80
2017-10-29T10:25:09.110Z,19.33
2017-10-29T10:28:11.070Z,22.08
2017-10-29T10:31:13.084Z,22.52
2017-10-29T10:34:15.780Z,18.48
2017-10-29T10:37:17.687Z,20.27
2017-10-29T10:40:20.741Z,22.80
2017-10-29T10:43:22.745Z,25.00
2017-10-29T10:46:24.789Z,22.90
2017-10-29T10:49:26.709Z,18.37
2017-10-29T10:52:28.650Z,17.87
2017-10-29T10:55:30.578Z,15.95
2017-10-29T10:58:32.539Z,21.98
2017-10-29T11:01:35.653Z,23.77
2017-10-29T11:04:41.136Z,16.50
2017-10-29T11:07:43.125Z,20.58
2017-10-29T11:10:46.215Z,17.10
2017-10-29T11:13:48.152Z,18.70
2017-10-29T11:16:50.074Z,9.52
2017-10-29T11:19:52.164Z,23.95
2017-10-29T11:22:54.091Z,26.40
2017-10-29T11:25:56.040Z,14.95
2017-10-29T11:28:58.445Z,17.48
2017-10-29T11:32:01.121Z,11.98
2017-10-29T11:35:03.043Z,11.98
2017-10-29T11:38:04.996Z,9.27
2017-10-29T11:41:08.450Z,8.20
2017-10-29T11:44:10.425Z,13.88
2017-10-29T11:47:13.177Z,10.45
2017-10-29T11:50:15.186Z,8.68
2017-10-29T11:53:17.108Z,13.02
2017-10-29T11:56:19.023Z,10.20
2017-10-29T11:59:21.010Z,12.90
2017-10-29T12:02:22.989Z,10.82
2017-10-29T12:05:24.982Z,11.77
2017-10-29T12:08:27.808Z,12.15
2017-10-29T12:11:30.704Z,15.82
2017-10-29T12:14:32.684Z,18.70
2017-10-29T12:17:34.711Z,12.40
2017-10-29T12:20:36.649Z,6.97
2017-10-29T12:23:39.449Z,3.67
2017-10-29T12:26:41.374Z,3.95
2017-10-29T12:29:43.424Z,7.62
2017-10-29T12:32:46.137Z,11.40
2017-10-29T12:35:48.846Z,11.20
2017-10-29T12:38:50.803Z,12.48
2017-10-29T12:41:52.762Z,17.55
2017-10-29T12:44:54.656Z,13.50
2017-10-29T12:47:56.962Z,12.43
2017-10-29T12:50:59.675Z,10.87
2017-10-29T12:54:02.391Z,8.87
2017-10-29T12:57:04.332Z,8.27
2017-10-29T13:00:06.277Z,5.90
2017-10-29T13:03:08.310Z,11.20
2017-10-29T13:06:10.301Z,14.00
2017-10-29T13:09:13.078Z,13.20
2017-10-29T13:12:15.123Z,13.10
2017-10-29T13:15:17.058Z,23.00
2017-10-29T13:18:19.035Z,15.80
2017-10-29T13:21:21.001Z,12.10
2017-10-29T13:24:22.998Z,15.03
2017-10-29T13:27:25.012Z,14.67
2017-10-29T13:30:28.202Z,18.97
2017-10-29T13:33:30.158Z,14.80
2017-10-29T13:36:32.085Z,10.17
2017-10-29T13:39:34.868Z,12.87
2017-10-29T13:42:37.145Z,12.73
2017-10-29T13:45:39.122Z,15.43
2017-10-29T13:48:41.121Z,13.13
2017-10-29T13:51:43.021Z,10.80
2017-10-29T13:54:45.818Z,11.57
2017-10-29T13:57:48.485Z,16.93
2017-10-29T14:00:50.426Z,11.23
2017-10-29T14:03:52.339Z,3.90
2017-10-29T14:06:54.657Z,5.43
2017-10-29T14:09:56.639Z,7.50
2017-10-29T14:12:58.577Z,3.07
2017-10-29T14:16:00.583Z,7.20
2017-10-29T14:19:02.563Z,5.67
2017-10-29T14:22:04.568Z,7.10
2017-10-29T14:25:06.861Z,16.80
2017-10-29T14:28:08.809Z,10.53
2017-10-29T14:31:10.755Z,6.67
2017-10-29T14:34:12.717Z,12.07
2017-10-29T14:37:14.648Z,14.27
2017-10-29T14:40:16.575Z,17.00
2017-10-29T14:43:18.542Z,21.43
2017-10-29T14:46:20.487Z,16.80
2017-10-29T14:49:23.102Z,17.63
2017-10-29T14:52:25.107Z,22.80
2017-10-29T14:55:27.026Z,13.73
2017-10-29T14:58:29.810Z,18.37
2017-10-29T15:01:32.523Z,21.37
2017-10-29T15:04:35.316Z,32.93
2017-10-29T15:07:38.023Z,20.93
2017-10-29T15:10:40.714Z,20.60
2017-10-29T15:13:42.765Z,19.80
2017-10-29T15:16:44.715Z,20.87
2017-10-29T15:19:47.058Z,18.50
2017-10-29T15:22:48.959Z,18.83
2017-10-29T15:25:51.643Z,22.80
2017-10-29T15:28:53.537Z,20.60
2017-10-29T15:31:56.274Z,17.63
2017-10-29T15:34:58.302Z,17.83
2017-10-29T15:38:00.217Z,22.00
2017-10-29T15:41:02.879Z,23.00
2017-10-29T15:44:04.800Z,23.90
2017-10-29T15:47:07.544Z,15.30
2017-10-29T15:50:09.469Z,18.57
2017-10-29T15:53:12.151Z,22.70
2017-10-29T15:56:14.239Z,19.00
2017-10-29T15:59:16.229Z,25.70
2017-10-29T16:02:18.154Z,31.83
2017-10-29T16:05:20.604Z,13.40
2017-10-29T16:08:22.544Z,17.30
2017-10-29T16:11:24.543Z,26.83
2017-10-29T16:14:26.847Z,23.63
2017-10-29T16:17:28.812Z,20.57
2017-10-29T16:20:30.785Z,23.17
2017-10-29T16:23:32.783Z,24.40
2017-10-29T16:26:35.910Z,17.47
2017-10-29T16:29:38.113Z,26.03
2017-10-29T16:32:40.886Z,23.97
2017-10-29T16:35:42.894Z,22.97
2017-10-29T16:38:44.848Z,26.13
2017-10-29T16:41:46.847Z,28.03
2017-10-29T16:44:49.684Z,25.47
2017-10-29T16:47:52.454Z,20.13
2017-10-29T16:50:54.439Z,18.60
2017-10-29T16:53:56.334Z,25.33
2017-10-29T16:56:59.420Z,21.60
2017-10-29T17:00:01.339Z,20.90
2017-10-29T17:03:03.697Z,31.07
2017-10-29T17:06:05.591Z,17.97
2017-10-29T17:09:07.527Z,25.70
2017-10-29T17:12:09.545Z,27.23
2017-10-29T17:15:13.146Z,20.57
2017-10-29T17:18:15.140Z,23.83
2017-10-29T17:21:17.952Z,26.53
2017-10-29T17:24:19.969Z,32.13
2017-10-29T17:27:21.928Z,31.03
2017-10-29T17:30:23.947Z,17.47
2017-10-29T17:33:25.992Z,26.00
2017-10-29T17:36:27.976Z,25.13
2017-10-29T17:39:31.078Z,19.80
2017-10-29T17:42:33.095Z,23.13
2017-10-29T17:45:35.855Z,16.73
2017-10-29T17:48:37.777Z,28.80
2017-10-29T17:51:40.786Z,22.50
2017-10-29T17:54:42.688Z,20.43
2017-10-29T17:57:45.023Z,22.93
2017-10-29T18:00:46.943Z,18.87
2017-10-29T18:03:49.653Z,25.67
2017-10-29T18:06:51.578Z,19.37
2017-10-29T18:09:53.592Z,25.10
2017-10-29T18:12:56.314Z,21.03
2017-10-29T18:15:58.256Z,24.57
2017-10-29T18:19:00.152Z,17.07
2017-10-29T18:22:02.678Z,29.13
2017-10-29T18:25:04.660Z,21.20
2017-10-29T18:28:06.595Z,23.43
2017-10-29T18:31:09.258Z,19.73
2017-10-29T18:34:11.290Z,23.00
2017-10-29T18:37:13.221Z,18.97
2017-10-29T18:40:15.134Z,22.57
2017-10-29T18:43:17.120Z,21.73
2017-10-29T18:46:19.312Z,15.73
2017-10-29T18:49:21.284Z,18.33
2017-10-29T18:52:23.304Z,26.87
2017-10-29T18:55:25.988Z,19.40
2017-10-29T18:58:27.964Z,22.50
2017-10-29T19:01:29.854Z,23.47
2017-10-29T19:04:31.769Z,17.43
2017-10-29T19:07:33.690Z,18.97
2017-10-29T19:10:35.735Z,28.13
2017-10-29T19:13:37.642Z,27.70
2017-10-29T19:16:39.644Z,21.73
2017-10-29T19:19:41.627Z,24.90
2017-10-29T19:22:43.927Z,24.67
2017-10-29T19:25:46.843Z,20.23
2017-10-29T19:28:48.829Z,29.30
2017-10-29T19:31:50.853Z,18.93
2017-10-29T19:34:53.805Z,13.87
2017-10-29T19:37:55.793Z,17.80
2017-10-29T19:40:58.119Z,21.43
2017-10-29T19:44:00.905Z,18.20
2017-10-29T19:47:02.818Z,19.83
2017-10-29T19:50:04.737Z,16.60
2017-10-29T19:53:06.704Z,12.97
2017-10-29T19:56:08.817Z,20.17
2017-10-29T19:59:11.039Z,12.63
2017-10-29T20:02:13.284Z,14.77
2017-10-29T20:05:15.438Z,22.20
2017-10-29T20:08:18.144Z,22.30
2017-10-29T20:11:20.834Z,22.07
2017-10-29T20:14:23.640Z,18.03
2017-10-29T20:17:26.330Z,21.83
2017-10-29T20:20:28.306Z,16.67
2017-10-29T20:23:30.294Z,12.10
2017-10-29T20:26:32.262Z,14.17
2017-10-29T20:29:34.579Z,9.97
2017-10-29T20:32:36.573Z,16.10
2017-10-29T20:35:39.184Z,13.90
2017-10-29T20:38:41.883Z,13.17
2017-10-29T20:41:45.328Z,15.53
2017-10-29T20:44:47.219Z,19.57
2017-10-29T20:47:49.172Z,19.93
2017-10-29T20:50:51.162Z,15.37
2017-10-29T20:53:54.237Z,8.10
2017-10-29T20:56:56.173Z,18.13
2017-10-29T20:59:58.967Z,12.13
2017-10-29T21:03:01.755Z,19.37
2017-10-29T21:06:03.740Z,11.50
2017-10-29T21:09:05.720Z,18.70
2017-10-29T21:12:07.673Z,11.20
2017-10-29T21:15:09.581Z,13.90
2017-10-29T21:18:11.499Z,11.80
2017-10-29T21:21:14.256Z,14.53
2017-10-29T21:24:16.219Z,5.50
2017-10-29T21:27:18.244Z,18.80
2017-10-29T21:30:20.946Z,15.47
2017-10-29T21:33:23.674Z,9.97
2017-10-29T21:36:26.034Z,16.30
2017-10-29T21:39:28.020Z,13.83
2017-10-29T21:42:29.974Z,18.93
2017-10-29T21:45:31.923Z,9.37
2017-10-29T21:48:33.872Z,11.53
2017-10-29T21:51:35.795Z,13.20
2017-10-29T21:54:38.104Z,11.97
2017-10-29T21:57:40.187Z,15.33
2017-10-29T22:00:42.526Z,12.90
2017-10-29T22:03:44.449Z,12.17
2017-10-29T22:06:46.479Z,16.87
2017-10-29T22:09:48.429Z,11.30
2017-10-29T22:12:50.773Z,12.17
2017-10-29T22:15:53.542Z,11.03
2017-10-29T22:18:55.854Z,12.37
2017-10-29T22:21:57.838Z,12.30
2017-10-29T22:24:59.783Z,14.60
2017-10-29T22:28:01.672Z,16.33
2017-10-29T22:31:03.974Z,16.67
2017-10-29T22:34:05.890Z,13.73
2017-10-29T22:37:08.962Z,18.97
2017-10-29T22:40:10.856Z,13.50
2017-10-29T22:43:12.789Z,12.73
2017-10-29T22:46:14.711Z,15.50
2017-10-29T22:49:16.690Z,12.43
2017-10-29T22:52:18.783Z,19.70
2017-10-29T22:55:20.742Z,11.50
2017-10-29T22:58:22.753Z,17.10
2017-10-29T23:01:24.715Z,10.23
2017-10-29T23:04:26.842Z,13.63
2017-10-29T23:07:40.902Z,13.57
2017-10-29T23:10:42.898Z,14.83
2017-10-29T23:13:45.598Z,15.00
2017-10-29T23:16:48.369Z,14.87
2017-10-29T23:19:50.592Z,16.20
2017-10-29T23:22:53.386Z,8.30
2017-10-29T23:25:56.094Z,11.80
2017-10-29T23:28:58.985Z,10.00
2017-10-29T23:32:00.910Z,8.53
2017-10-29T23:35:02.819Z,12.83
2017-10-29T23:38:04.941Z,11.37
2017-10-29T23:41:06.915Z,14.13
2017-10-29T23:44:09.047Z,13.07
2017-10-29T23:47:11.103Z,11.80
2017-10-29T23:50:14.211Z,8.87
2017-10-29T23:53:17.012Z,14.60
2017-10-29T23:56:19.719Z,12.77
2017-10-29T23:59:22.393Z,10.67
